Time;durP1;ratioP1;P1;durP2;ratioP2;P2;SDS_P1;SDS_P2;PMS_P1;PMS_P2;Temp;Humidity;BMP_temperature;BMP_pressure;BME280_temperature;BME280_humidity;BME280_pressure;Samples;Min_cycle;Max_cycle;Signal;HPM_P1;HPM_P2
2021/10/18 00:01:03;;;;;;;14.37;10.60;;;;;;;;;;5073763;28;20750;-72
2021/10/18 00:03:29;;;;;;;12.90;10.87;;;;;;;;;;5074802;28;20220;-72
2021/10/18 00:05:54;;;;;;;13.33;10.83;;;;;;;;;;5075319;28;20579;-72
2021/10/18 00:08:19;;;;;;;15.33;11.53;;;;;;;;;;5074724;28;20191;-72
2021/10/18 00:10:44;;;;;;;13.40;10.60;;;;;;;;;;5072354;28;20224;-72
2021/10/18 00:13:09;;;;;;;15.90;11.50;;;;;;;;;;5071334;28;20642;-72
2021/10/18 00:15:35;;;;;;;15.63;10.97;;;;;;;;;;5069185;28;20276;-72
2021/10/18 00:18:00;;;;;;;16.90;11.43;;;;;;;;;;5067977;28;20684;-72
2021/10/18 00:20:26;;;;;;;13.50;10.90;;;;;;;;;;5068948;28;20181;-72
2021/10/18 00:22:52;;;;;;;14.67;11.07;;;;;;;;;;5071379;28;20177;-72
2021/10/18 00:25:17;;;;;;;12.73;10.87;;;;;;;;;;5070136;28;20220;-72
2021/10/18 00:27:43;;;;;;;15.77;10.23;;;;;;;;;;5077241;28;20566;-72
2021/10/18 00:30:08;;;;;;;13.43;11.00;;;;;;;;;;5063987;28;20260;-72
2021/10/18 00:32:33;;;;;;;15.93;11.33;;;;;;;;;;5070770;28;20190;-72
2021/10/18 00:34:59;;;;;;;13.10;10.20;;;;;;;;;;5072666;28;20199;-74
2021/10/18 00:37:24;;;;;;;13.40;11.03;;;;;;;;;;5075958;28;20176;-72
2021/10/18 00:39:49;;;;;;;15.10;11.07;;;;;;;;;;5068561;28;20204;-72
2021/10/18 00:42:14;;;;;;;16.30;11.30;;;;;;;;;;5058554;28;20204;-71
2021/10/18 00:44:41;;;;;;;13.93;11.03;;;;;;;;;;5069467;28;20678;-75
2021/10/18 00:47:06;;;;;;;15.03;10.93;;;;;;;;;;5071877;28;20181;-72
2021/10/18 00:49:31;;;;;;;13.07;10.20;;;;;;;;;;5065740;28;20253;-72
2021/10/18 00:51:58;;;;;;;13.40;11.50;;;;;;;;;;5070630;28;20205;-71
2021/10/18 00:54:23;;;;;;;13.60;11.40;;;;;;;;;;5060974;28;20180;-72
2021/10/18 00:56:48;;;;;;;15.73;11.50;;;;;;;;;;5070942;28;20189;-71
2021/10/18 00:59:14;;;;;;;15.57;11.40;;;;;;;;;;5068051;28;20635;-71
2021/10/18 01:01:39;;;;;;;15.20;11.73;;;;;;;;;;5064444;28;20229;-72
2021/10/18 01:04:05;;;;;;;15.33;12.20;;;;;;;;;;5068413;28;20204;-71
2021/10/18 01:06:30;;;;;;;14.97;11.87;;;;;;;;;;5072355;28;20776;-72
2021/10/18 01:08:55;;;;;;;13.83;11.10;;;;;;;;;;5069983;28;20173;-71
2021/10/18 01:11:21;;;;;;;13.27;11.20;;;;;;;;;;5061184;28;20292;-73
2021/10/18 01:13:46;;;;;;;16.43;11.17;;;;;;;;;;5057049;28;20187;-73
2021/10/18 01:16:12;;;;;;;15.43;10.47;;;;;;;;;;5075139;28;20235;-73
2021/10/18 01:18:37;;;;;;;17.77;11.77;;;;;;;;;;5064210;28;20546;-73
2021/10/18 01:21:02;;;;;;;18.57;11.80;;;;;;;;;;5076674;28;20202;-73
2021/10/18 01:23:28;;;;;;;19.47;12.33;;;;;;;;;;5063440;28;20477;-73
2021/10/18 01:25:53;;;;;;;15.33;11.83;;;;;;;;;;5073626;28;20222;-73
2021/10/18 01:28:18;;;;;;;16.57;12.10;;;;;;;;;;5063683;28;20185;-72
2021/10/18 01:30:43;;;;;;;14.40;11.80;;;;;;;;;;5072240;28;20196;-72
2021/10/18 01:33:09;;;;;;;16.23;12.00;;;;;;;;;;5062957;28;20187;-72
2021/10/18 01:35:34;;;;;;;18.87;12.43;;;;;;;;;;5071616;28;20176;-73
2021/10/18 01:37:59;;;;;;;15.40;11.67;;;;;;;;;;5076713;28;20182;-72
2021/10/18 01:40:25;;;;;;;16.03;13.07;;;;;;;;;;5069552;28;20180;-73
2021/10/18 01:42:51;;;;;;;16.23;12.33;;;;;;;;;;5075568;28;20188;-72
2021/10/18 01:45:17;;;;;;;19.57;12.43;;;;;;;;;;5062159;28;20197;-73
2021/10/18 01:47:42;;;;;;;16.20;12.70;;;;;;;;;;5069857;28;20176;-73
2021/10/18 01:50:11;;;;;;;14.57;12.13;;;;;;;;;;5069919;28;20233;-73
2021/10/18 01:52:37;;;;;;;15.23;12.43;;;;;;;;;;5069372;28;20490;-73
2021/10/18 01:55:03;;;;;;;19.10;13.27;;;;;;;;;;5063086;28;20185;-73
2021/10/18 01:57:28;;;;;;;15.33;12.93;;;;;;;;;;5067882;28;20661;-73
2021/10/18 01:59:53;;;;;;;17.53;12.87;;;;;;;;;;5068134;28;20745;-72
2021/10/18 02:02:18;;;;;;;15.40;12.60;;;;;;;;;;5081137;22;20229;-70
2021/10/18 02:04:44;;;;;;;14.67;11.73;;;;;;;;;;5069181;28;20216;-70
2021/10/18 02:07:09;;;;;;;16.30;11.07;;;;;;;;;;5040264;28;20188;-70
2021/10/18 02:09:34;;;;;;;16.73;13.20;;;;;;;;;;5069235;28;20184;-70
2021/10/18 02:12:00;;;;;;;17.23;12.97;;;;;;;;;;5068875;28;20573;-70
2021/10/18 02:14:25;;;;;;;18.03;14.17;;;;;;;;;;5070307;28;20188;-70
2021/10/18 02:16:50;;;;;;;16.57;13.03;;;;;;;;;;5070367;28;20181;-70
2021/10/18 02:19:15;;;;;;;20.73;13.93;;;;;;;;;;5070777;28;20185;-70
2021/10/18 02:21:40;;;;;;;16.57;12.93;;;;;;;;;;5069100;28;20558;-70
2021/10/18 02:24:06;;;;;;;18.43;13.97;;;;;;;;;;5064661;28;20577;-70
2021/10/18 02:26:31;;;;;;;19.73;14.63;;;;;;;;;;5062944;28;20169;-70
2021/10/18 02:28:56;;;;;;;18.17;14.57;;;;;;;;;;5047922;28;20237;-70
2021/10/18 02:31:21;;;;;;;19.57;14.10;;;;;;;;;;5065908;28;20197;-70
2021/10/18 02:33:46;;;;;;;19.93;14.53;;;;;;;;;;5064682;28;20458;-70
2021/10/18 02:36:12;;;;;;;19.50;13.67;;;;;;;;;;5060548;28;20224;-70
2021/10/18 02:38:39;;;;;;;19.93;14.10;;;;;;;;;;5062936;28;20172;-71
2021/10/18 02:41:04;;;;;;;18.63;14.37;;;;;;;;;;5063109;28;20211;-71
2021/10/18 02:43:29;;;;;;;20.40;14.17;;;;;;;;;;5040798;28;20184;-70
2021/10/18 02:45:55;;;;;;;20.50;14.77;;;;;;;;;;5062919;28;20260;-71
2021/10/18 02:48:20;;;;;;;22.33;14.87;;;;;;;;;;5066861;28;20177;-70
2021/10/18 02:50:45;;;;;;;22.37;14.27;;;;;;;;;;5050720;28;20208;-70
2021/10/18 02:53:10;;;;;;;19.17;14.93;;;;;;;;;;5067823;28;20565;-70
2021/10/18 02:55:35;;;;;;;24.13;16.33;;;;;;;;;;5066405;28;20235;-70
2021/10/18 02:58:01;;;;;;;20.20;14.77;;;;;;;;;;5050334;28;20568;-71
2021/10/18 03:00:26;;;;;;;18.90;15.07;;;;;;;;;;5067476;28;20181;-70
2021/10/18 03:02:51;;;;;;;22.13;15.33;;;;;;;;;;5067308;28;20205;-70
2021/10/18 03:05:16;;;;;;;20.07;15.47;;;;;;;;;;5051755;28;20209;-70
2021/10/18 03:07:41;;;;;;;25.60;15.60;;;;;;;;;;5069959;28;20185;-72
2021/10/18 03:10:07;;;;;;;18.37;14.90;;;;;;;;;;5055838;28;20169;-70
2021/10/18 03:12:33;;;;;;;23.57;15.70;;;;;;;;;;5065844;28;20255;-70
2021/10/18 03:14:59;;;;;;;19.33;15.67;;;;;;;;;;5072028;28;20184;-70
2021/10/18 03:17:24;;;;;;;19.90;15.13;;;;;;;;;;5041828;28;20283;-70
2021/10/18 03:19:49;;;;;;;21.60;16.00;;;;;;;;;;5070317;28;20226;-70
2021/10/18 03:22:14;;;;;;;20.90;15.90;;;;;;;;;;5064294;28;20243;-70
2021/10/18 03:24:39;;;;;;;25.10;18.37;;;;;;;;;;5064517;28;20211;-70
2021/10/18 03:27:05;;;;;;;25.37;16.43;;;;;;;;;;5063849;28;20180;-70
2021/10/18 03:29:30;;;;;;;22.90;15.77;;;;;;;;;;5064018;28;20185;-71
2021/10/18 03:31:55;;;;;;;19.90;14.97;;;;;;;;;;5063644;28;20272;-70
2021/10/18 03:34:20;;;;;;;22.50;17.57;;;;;;;;;;5062542;28;20181;-70
2021/10/18 03:36:45;;;;;;;22.00;15.27;;;;;;;;;;5068172;28;20269;-70
2021/10/18 03:39:11;;;;;;;21.57;16.03;;;;;;;;;;5071274;28;20185;-70
2021/10/18 03:41:36;;;;;;;20.90;17.87;;;;;;;;;;5069122;28;20200;-70
2021/10/18 03:44:01;;;;;;;20.80;15.93;;;;;;;;;;5051878;28;20673;-70
2021/10/18 03:46:26;;;;;;;23.70;17.03;;;;;;;;;;5068494;28;20172;-70
2021/10/18 03:48:51;;;;;;;20.27;16.67;;;;;;;;;;5062945;28;20207;-70
2021/10/18 03:51:16;;;;;;;19.60;16.00;;;;;;;;;;5062666;28;20200;-70
2021/10/18 03:53:42;;;;;;;24.07;16.43;;;;;;;;;;5068269;28;20193;-70
2021/10/18 03:56:07;;;;;;;20.10;15.00;;;;;;;;;;5065820;28;20185;-70
2021/10/18 03:58:32;;;;;;;21.37;16.33;;;;;;;;;;5052836;28;20213;-70
2021/10/18 04:00:57;;;;;;;26.43;16.87;;;;;;;;;;5062492;28;20210;-70
2021/10/18 04:03:22;;;;;;;23.07;17.73;;;;;;;;;;5066947;28;20185;-70
2021/10/18 04:05:48;;;;;;;28.10;19.60;;;;;;;;;;5072476;28;20208;-70
2021/10/18 04:08:13;;;;;;;29.47;20.40;;;;;;;;;;5067957;28;20173;-70
2021/10/18 04:10:38;;;;;;;28.73;20.37;;;;;;;;;;5066081;28;20211;-70
2021/10/18 04:13:03;;;;;;;33.40;21.33;;;;;;;;;;5065686;28;20177;-71
2021/10/18 04:15:28;;;;;;;30.87;20.10;;;;;;;;;;5066922;28;20193;-70
2021/10/18 04:17:54;;;;;;;29.67;20.47;;;;;;;;;;5047095;28;20235;-70
2021/10/18 04:20:19;;;;;;;32.53;20.97;;;;;;;;;;5070750;28;20177;-70
2021/10/18 04:22:46;;;;;;;28.90;21.27;;;;;;;;;;5068087;28;20294;-70
2021/10/18 04:25:12;;;;;;;27.00;19.47;;;;;;;;;;5070506;28;20226;-70
2021/10/18 04:27:37;;;;;;;29.93;20.90;;;;;;;;;;5070800;28;20185;-70
2021/10/18 04:30:03;;;;;;;30.67;20.07;;;;;;;;;;5066055;28;20264;-70
2021/10/18 04:32:28;;;;;;;27.90;19.70;;;;;;;;;;5069851;28;20193;-70
2021/10/18 04:34:53;;;;;;;31.00;20.47;;;;;;;;;;5068116;28;20184;-70
2021/10/18 04:37:18;;;;;;;27.13;20.67;;;;;;;;;;5069582;28;20184;-70
2021/10/18 04:39:43;;;;;;;27.30;20.30;;;;;;;;;;5070449;28;20187;-70
2021/10/18 04:42:09;;;;;;;32.13;21.63;;;;;;;;;;5066331;28;20224;-70
2021/10/18 04:44:36;;;;;;;25.83;20.70;;;;;;;;;;5070198;28;20220;-70
2021/10/18 04:47:01;;;;;;;31.03;20.30;;;;;;;;;;5069477;28;20670;-71
2021/10/18 04:49:27;;;;;;;27.33;20.63;;;;;;;;;;5063100;28;20169;-69
2021/10/18 04:51:52;;;;;;;28.20;19.90;;;;;;;;;;5069773;28;20253;-70
2021/10/18 04:54:17;;;;;;;30.43;20.53;;;;;;;;;;5069479;28;20169;-71
2021/10/18 04:56:42;;;;;;;24.83;19.07;;;;;;;;;;5061165;28;20651;-72
2021/10/18 04:59:07;;;;;;;26.10;20.07;;;;;;;;;;5055437;28;20189;-71
2021/10/18 05:01:32;;;;;;;32.50;20.83;;;;;;;;;;5053070;28;20212;-72
2021/10/18 05:03:58;;;;;;;29.23;20.57;;;;;;;;;;5058608;28;20222;-72
2021/10/18 05:06:23;;;;;;;29.17;21.77;;;;;;;;;;5059405;28;20185;-72
2021/10/18 05:08:48;;;;;;;31.60;22.07;;;;;;;;;;5062204;28;21749;-72
2021/10/18 05:11:13;;;;;;;29.50;20.50;;;;;;;;;;5058920;28;20208;-72
2021/10/18 05:13:38;;;;;;;30.07;20.80;;;;;;;;;;5040390;28;20572;-71
2021/10/18 05:16:04;;;;;;;34.57;23.20;;;;;;;;;;5058953;28;20195;-69
2021/10/18 05:18:29;;;;;;;33.43;22.00;;;;;;;;;;5060928;28;20169;-72
2021/10/18 05:20:54;;;;;;;32.07;21.37;;;;;;;;;;5054845;28;20552;-71
2021/10/18 05:23:19;;;;;;;31.37;19.83;;;;;;;;;;5057933;28;20223;-72
2021/10/18 05:25:44;;;;;;;27.07;20.87;;;;;;;;;;5044392;28;20341;-72
2021/10/18 05:28:10;;;;;;;28.60;20.97;;;;;;;;;;5062198;28;20255;-72
2021/10/18 05:30:36;;;;;;;27.63;20.33;;;;;;;;;;5044845;28;20269;-72
2021/10/18 05:33:01;;;;;;;33.43;22.23;;;;;;;;;;5059703;28;20195;-72
2021/10/18 05:35:27;;;;;;;31.83;23.37;;;;;;;;;;5059954;28;20242;-72
2021/10/18 05:37:52;;;;;;;29.80;20.37;;;;;;;;;;5064683;28;20235;-69
2021/10/18 05:40:18;;;;;;;42.60;26.17;;;;;;;;;;5067711;28;20180;-69
2021/10/18 05:42:43;;;;;;;37.70;25.40;;;;;;;;;;5066750;28;20204;-72
2021/10/18 05:45:09;;;;;;;38.17;25.73;;;;;;;;;;5066753;28;20670;-69
2021/10/18 05:47:34;;;;;;;37.80;25.97;;;;;;;;;;5068935;28;20264;-71
2021/10/18 05:50:00;;;;;;;41.43;26.83;;;;;;;;;;5060723;28;20212;-71
2021/10/18 05:52:28;;;;;;;39.93;26.93;;;;;;;;;;5064455;28;20228;-71
2021/10/18 05:54:54;;;;;;;38.70;25.70;;;;;;;;;;5064904;28;20662;-69
2021/10/18 05:57:19;;;;;;;35.80;24.50;;;;;;;;;;5066195;28;20177;-70
2021/10/18 05:59:44;;;;;;;34.33;24.23;;;;;;;;;;5068899;28;20243;-69
2021/10/18 06:02:09;;;;;;;34.87;24.07;;;;;;;;;;5067174;28;20212;-70
2021/10/18 06:04:37;;;;;;;34.40;24.83;;;;;;;;;;5066632;28;20216;-70
2021/10/18 06:07:02;;;;;;;35.20;23.13;;;;;;;;;;5049080;28;20606;-70
2021/10/18 06:09:27;;;;;;;35.30;24.57;;;;;;;;;;5066003;28;20181;-70
2021/10/18 06:11:53;;;;;;;33.93;23.50;;;;;;;;;;5069008;28;20649;-70
2021/10/18 06:14:18;;;;;;;34.53;23.37;;;;;;;;;;5069762;28;20173;-70
2021/10/18 06:16:43;;;;;;;34.30;23.70;;;;;;;;;;5067085;28;20177;-70
2021/10/18 06:19:08;;;;;;;37.87;24.73;;;;;;;;;;5064674;28;20264;-70
2021/10/18 06:21:34;;;;;;;35.77;25.20;;;;;;;;;;5040348;28;20203;-71
2021/10/18 06:23:59;;;;;;;38.47;24.93;;;;;;;;;;5056959;28;20734;-71
2021/10/18 06:26:24;;;;;;;36.43;25.30;;;;;;;;;;5059178;28;20238;-71
2021/10/18 06:28:49;;;;;;;38.53;25.20;;;;;;;;;;5059511;28;20260;-70
2021/10/18 06:31:14;;;;;;;41.87;26.47;;;;;;;;;;5058725;28;20584;-70
2021/10/18 06:33:40;;;;;;;39.77;25.00;;;;;;;;;;5060605;28;20677;-70
2021/10/18 06:36:05;;;;;;;39.77;25.30;;;;;;;;;;5043098;28;20181;-70
2021/10/18 06:38:30;;;;;;;43.50;25.40;;;;;;;;;;5063051;28;20177;-70
2021/10/18 06:40:56;;;;;;;37.30;24.47;;;;;;;;;;5058876;28;20658;-70
2021/10/18 06:43:21;;;;;;;35.40;25.37;;;;;;;;;;5059111;28;20185;-70
2021/10/18 06:45:47;;;;;;;37.07;25.73;;;;;;;;;;5059366;28;20240;-70
2021/10/18 06:48:15;;;;;;;34.57;26.53;;;;;;;;;;5060765;28;20231;-70
2021/10/18 06:50:41;;;;;;;37.13;25.87;;;;;;;;;;5042030;28;20646;-70
2021/10/18 06:53:11;;;;;;;39.17;25.80;;;;;;;;;;5062326;28;20260;-71
2021/10/18 06:55:36;;;;;;;39.77;27.63;;;;;;;;;;5063215;28;20247;-70
2021/10/18 06:58:02;;;;;;;39.03;26.13;;;;;;;;;;5071499;28;20646;-70
2021/10/18 07:00:27;;;;;;;39.10;27.07;;;;;;;;;;5047264;28;20546;-70
2021/10/18 07:02:52;;;;;;;41.17;27.30;;;;;;;;;;5058753;28;20555;-70
2021/10/18 07:05:17;;;;;;;35.90;25.93;;;;;;;;;;5051616;28;20215;-70
2021/10/18 07:07:43;;;;;;;41.87;26.43;;;;;;;;;;5066117;28;20205;-71
2021/10/18 07:10:08;;;;;;;41.80;25.83;;;;;;;;;;5050340;28;20178;-70
2021/10/18 07:12:34;;;;;;;33.97;26.13;;;;;;;;;;5062839;28;20208;-70
2021/10/18 07:15:00;;;;;;;37.00;27.33;;;;;;;;;;5046495;28;20264;-70
2021/10/18 07:17:26;;;;;;;33.13;25.07;;;;;;;;;;5061860;28;20193;-70
2021/10/18 07:19:52;;;;;;;37.27;26.47;;;;;;;;;;5064125;28;20184;-70
2021/10/18 07:22:17;;;;;;;33.43;23.90;;;;;;;;;;5063981;28;20204;-70
2021/10/18 07:24:43;;;;;;;35.47;25.23;;;;;;;;;;5054124;28;20213;-70
2021/10/18 07:27:08;;;;;;;31.27;23.33;;;;;;;;;;5072462;28;20181;-70
2021/10/18 07:29:33;;;;;;;33.43;23.30;;;;;;;;;;5059792;28;20178;-70
2021/10/18 07:31:59;;;;;;;30.77;22.43;;;;;;;;;;5068646;28;20205;-70
2021/10/18 07:34:24;;;;;;;31.87;23.03;;;;;;;;;;5045365;28;20188;-70
2021/10/18 07:36:50;;;;;;;29.07;21.20;;;;;;;;;;5071694;28;20180;-70
2021/10/18 07:39:16;;;;;;;29.10;22.30;;;;;;;;;;5072427;28;20207;-70
2021/10/18 07:41:41;;;;;;;28.67;21.50;;;;;;;;;;5068776;28;20649;-70
2021/10/18 07:44:06;;;;;;;28.53;21.20;;;;;;;;;;5064899;28;20232;-70
2021/10/18 07:46:31;;;;;;;29.63;20.30;;;;;;;;;;5061440;28;20268;-70
2021/10/18 07:48:56;;;;;;;30.30;20.60;;;;;;;;;;5069868;28;20177;-70
2021/10/18 07:51:22;;;;;;;28.63;20.47;;;;;;;;;;5064971;28;20625;-70
2021/10/18 07:53:47;;;;;;;29.07;21.00;;;;;;;;;;5069922;28;20260;-70
2021/10/18 07:56:12;;;;;;;26.37;19.40;;;;;;;;;;5073301;28;20609;-70
2021/10/18 07:58:37;;;;;;;27.27;18.80;;;;;;;;;;5069104;28;20180;-70
2021/10/18 08:01:02;;;;;;;25.70;20.13;;;;;;;;;;5063609;22;20199;-73
2021/10/18 08:03:27;;;;;;;25.97;19.47;;;;;;;;;;5050382;28;20276;-73
2021/10/18 08:05:53;;;;;;;23.33;17.00;;;;;;;;;;5051509;28;20216;-73
2021/10/18 08:08:22;;;;;;;22.93;17.37;;;;;;;;;;5065394;28;20178;-74
2021/10/18 08:10:48;;;;;;;23.03;16.80;;;;;;;;;;5073855;28;20181;-73
2021/10/18 08:13:13;;;;;;;26.60;19.93;;;;;;;;;;5051777;28;20168;-74
2021/10/18 08:15:38;;;;;;;25.80;19.20;;;;;;;;;;5069389;28;20208;-73
2021/10/18 08:18:03;;;;;;;23.40;18.57;;;;;;;;;;5067362;28;20177;-74
2021/10/18 08:20:29;;;;;;;23.33;18.00;;;;;;;;;;5069755;28;20197;-72
2021/10/18 08:22:54;;;;;;;25.33;18.17;;;;;;;;;;5053542;28;20204;-74
2021/10/18 08:25:19;;;;;;;22.33;17.00;;;;;;;;;;5052162;28;20216;-72
2021/10/18 08:27:44;;;;;;;21.93;16.73;;;;;;;;;;5051629;28;20189;-72
2021/10/18 08:30:12;;;;;;;25.30;18.38;;;;;;;;;;5052280;28;20213;-72
2021/10/18 08:32:37;;;;;;;22.63;17.80;;;;;;;;;;5036699;28;20329;-73
2021/10/18 08:35:03;;;;;;;26.77;18.65;;;;;;;;;;5050077;28;21527;-74
2021/10/18 08:40:12;;;;;;;26.75;17.52;;;;;;;;;;5049964;28;20635;-74
2021/10/18 08:42:53;;;;;;;21.88;16.70;;;;;;;;;;5049827;28;20312;-73
2021/10/18 08:45:19;;;;;;;25.45;18.33;;;;;;;;;;5048363;28;21819;-73
2021/10/18 08:47:44;;;;;;;20.45;17.02;;;;;;;;;;5049567;28;20211;-73
2021/10/18 08:50:09;;;;;;;24.27;18.10;;;;;;;;;;5052048;28;20177;-72
2021/10/18 08:52:35;;;;;;;25.85;18.42;;;;;;;;;;5046198;28;20293;-73
2021/10/18 08:55:00;;;;;;;22.73;17.85;;;;;;;;;;5032712;28;20642;-74
2021/10/18 08:57:25;;;;;;;21.67;16.58;;;;;;;;;;5052994;28;22302;-74
2021/10/18 08:59:51;;;;;;;24.10;17.92;;;;;;;;;;5047726;28;20238;-74
2021/10/18 09:02:16;;;;;;;20.25;16.50;;;;;;;;;;5048106;28;20213;-73
2021/10/18 09:04:41;;;;;;;22.08;16.55;;;;;;;;;;5049960;28;20193;-74
2021/10/18 09:07:14;;;;;;;22.33;16.52;;;;;;;;;;5049264;28;20208;-73
2021/10/18 09:09:47;;;;;;;22.30;16.45;;;;;;;;;;5046892;28;20259;-74
2021/10/18 09:12:25;;;;;;;21.23;16.60;;;;;;;;;;5046414;28;20290;-71
2021/10/18 09:14:51;;;;;;;24.65;16.08;;;;;;;;;;5047945;28;20189;-74
2021/10/18 09:17:29;;;;;;;24.05;16.92;;;;;;;;;;5048391;28;20190;-73
2021/10/18 09:20:14;;;;;;;19.33;15.68;;;;;;;;;;5052586;28;20188;-73
2021/10/18 09:22:39;;;;;;;19.60;16.15;;;;;;;;;;5056067;28;21223;-74
2021/10/18 09:25:05;;;;;;;22.08;16.95;;;;;;;;;;5047580;28;20295;-72
2021/10/18 09:27:31;;;;;;;22.50;17.02;;;;;;;;;;5046607;28;20579;-72
2021/10/18 09:29:56;;;;;;;23.08;17.95;;;;;;;;;;5048802;28;20185;-72
2021/10/18 09:32:27;;;;;;;22.70;17.08;;;;;;;;;;5049644;28;20205;-72
2021/10/18 09:35:02;;;;;;;21.73;16.73;;;;;;;;;;5054663;28;20662;-73
2021/10/18 09:37:36;;;;;;;20.55;16.15;;;;;;;;;;5032898;28;20572;-72
2021/10/18 09:40:01;;;;;;;19.55;15.90;;;;;;;;;;5051904;28;20191;-73
2021/10/18 09:42:26;;;;;;;20.98;16.08;;;;;;;;;;5036366;28;20673;-73
2021/10/18 09:48:07;;;;;;;18.65;14.27;;;;;;;;;;5050442;28;20425;-72
2021/10/18 10:54:13;;;;;;;19.40;13.95;;;;;;;;;;5055340;28;20212;-72
2021/10/18 10:56:48;;;;;;;21.30;15.00;;;;;;;;;;5054346;28;20508;-72
2021/10/18 11:02:09;;;;;;;16.92;13.00;;;;;;;;;;5064869;28;20293;-72
2021/10/18 11:04:35;;;;;;;16.80;13.43;;;;;;;;;;5057792;28;20572;-73
2021/10/18 11:07:02;;;;;;;19.17;14.35;;;;;;;;;;5042329;28;20181;-73
2021/10/18 11:09:46;;;;;;;17.55;13.73;;;;;;;;;;5066299;28;20173;-71
2021/10/18 11:12:17;;;;;;;16.70;13.38;;;;;;;;;;5065542;28;20196;-73
2021/10/18 11:14:56;;;;;;;16.33;13.38;;;;;;;;;;5063586;28;20418;-74
2021/10/18 11:17:25;;;;;;;18.25;13.02;;;;;;;;;;5052276;28;20596;-74
2021/10/18 11:19:55;;;;;;;15.95;13.32;;;;;;;;;;5053057;28;20304;-71
2021/10/18 11:22:29;;;;;;;15.60;12.57;;;;;;;;;;5049451;28;20205;-72
2021/10/18 11:24:54;;;;;;;19.45;14.00;;;;;;;;;;5034977;28;20578;-72
2021/10/18 11:27:24;;;;;;;15.00;13.25;;;;;;;;;;5049776;28;20177;-73
2021/10/18 11:29:54;;;;;;;17.85;13.15;;;;;;;;;;5051378;28;20178;-74
2021/10/18 11:32:20;;;;;;;18.90;13.57;;;;;;;;;;5053129;28;20227;-74
2021/10/18 11:34:45;;;;;;;18.70;14.00;;;;;;;;;;5051675;28;20205;-73
2021/10/18 11:37:10;;;;;;;17.27;12.98;;;;;;;;;;5052671;28;20275;-74
2021/10/18 11:39:36;;;;;;;15.67;13.07;;;;;;;;;;5049110;28;20194;-73
2021/10/18 11:42:02;;;;;;;16.73;13.13;;;;;;;;;;5049940;28;20461;-73
2021/10/18 11:44:37;;;;;;;16.58;12.73;;;;;;;;;;5055526;28;20838;-73
2021/10/18 11:47:02;;;;;;;16.30;12.52;;;;;;;;;;5054123;28;20188;-74
2021/10/18 11:49:27;;;;;;;14.52;12.35;;;;;;;;;;5053752;28;20173;-74
2021/10/18 11:51:53;;;;;;;15.87;12.60;;;;;;;;;;5053614;28;20201;-74
2021/10/18 11:54:18;;;;;;;16.08;12.82;;;;;;;;;;5052206;28;20986;-74
2021/10/18 11:56:44;;;;;;;15.35;12.60;;;;;;;;;;5054637;28;20650;-74
2021/10/18 11:59:09;;;;;;;14.93;13.27;;;;;;;;;;5052689;28;20181;-74
2021/10/18 12:01:34;;;;;;;18.13;13.67;;;;;;;;;;5054760;28;20694;-74
2021/10/18 12:03:59;;;;;;;17.33;12.93;;;;;;;;;;5052249;28;20433;-74
2021/10/18 12:06:24;;;;;;;15.85;12.40;;;;;;;;;;5054244;28;20177;-72
2021/10/18 12:08:56;;;;;;;16.70;12.60;;;;;;;;;;5052788;28;20181;-72
2021/10/18 12:11:21;;;;;;;16.02;12.85;;;;;;;;;;5055152;28;20253;-72
2021/10/18 12:13:47;;;;;;;16.43;12.97;;;;;;;;;;5054381;28;20177;-73
2021/10/18 12:16:25;;;;;;;17.33;13.25;;;;;;;;;;5038403;28;20418;-72
2021/10/18 12:18:56;;;;;;;14.25;11.90;;;;;;;;;;5052729;28;20189;-73
2021/10/18 12:21:32;;;;;;;15.35;12.68;;;;;;;;;;5033728;28;20295;-73
2021/10/18 12:23:59;;;;;;;14.68;11.98;;;;;;;;;;5051454;28;20234;-74
2021/10/18 12:26:32;;;;;;;13.73;10.90;;;;;;;;;;5036922;28;20243;-74
2021/10/18 12:28:59;;;;;;;17.83;13.10;;;;;;;;;;5053663;28;20180;-73
2021/10/18 12:31:43;;;;;;;15.45;12.20;;;;;;;;;;5042130;28;20205;-74
2021/10/18 12:34:24;;;;;;;16.23;12.50;;;;;;;;;;5050686;28;20189;-73
2021/10/18 12:37:00;;;;;;;15.15;11.75;;;;;;;;;;5048568;28;20222;-73
2021/10/18 12:39:35;;;;;;;16.45;10.98;;;;;;;;;;5053365;28;21573;-73
2021/10/18 12:42:00;;;;;;;15.43;11.88;;;;;;;;;;5040436;28;20200;-74
2021/10/18 12:44:44;;;;;;;13.05;11.15;;;;;;;;;;5048950;28;20716;-74
2021/10/18 12:47:15;;;;;;;14.27;11.95;;;;;;;;;;5046630;28;20789;-74
2021/10/18 12:49:41;;;;;;;14.18;11.15;;;;;;;;;;5047129;28;20298;-74
2021/10/18 12:52:08;;;;;;;15.90;11.70;;;;;;;;;;5059367;28;20192;-74
2021/10/18 12:54:44;;;;;;;15.05;10.65;;;;;;;;;;5047978;28;20245;-74
2021/10/18 12:57:09;;;;;;;13.05;10.40;;;;;;;;;;5035284;28;20176;-74
2021/10/18 12:59:54;;;;;;;15.57;10.95;;;;;;;;;;5050254;28;20240;-74
2021/10/18 13:02:22;;;;;;;15.15;10.95;;;;;;;;;;5049571;28;20580;-72
2021/10/18 13:05:05;;;;;;;13.57;10.70;;;;;;;;;;5050541;28;20345;-73
2021/10/18 13:07:33;;;;;;;13.00;11.23;;;;;;;;;;5048539;28;20679;-73
2021/10/18 13:09:59;;;;;;;11.82;10.45;;;;;;;;;;5050916;28;20218;-73
2021/10/18 13:12:26;;;;;;;13.43;10.52;;;;;;;;;;5048354;28;20240;-73
2021/10/18 13:14:51;;;;;;;11.85;10.55;;;;;;;;;;5050804;28;20172;-74
2021/10/18 13:17:16;;;;;;;12.25;10.95;;;;;;;;;;5050570;28;20192;-73
2021/10/18 13:19:41;;;;;;;13.00;10.82;;;;;;;;;;5059886;28;20306;-74
2021/10/18 13:22:06;;;;;;;12.77;10.47;;;;;;;;;;5053692;28;20253;-74
2021/10/18 13:24:32;;;;;;;15.38;11.10;;;;;;;;;;5051494;28;20843;-74
2021/10/18 13:26:57;;;;;;;15.43;11.27;;;;;;;;;;5050952;28;20212;-74
2021/10/18 13:29:24;;;;;;;19.10;10.68;;;;;;;;;;5053175;28;20188;-74
2021/10/18 13:31:49;;;;;;;13.48;10.13;;;;;;;;;;5047900;28;20291;-72
2021/10/18 13:34:14;;;;;;;13.93;10.38;;;;;;;;;;5048702;28;20196;-72
2021/10/18 13:36:39;;;;;;;13.17;10.27;;;;;;;;;;5048877;28;20177;-72
2021/10/18 13:39:04;;;;;;;11.63;10.32;;;;;;;;;;5050441;28;20790;-72
2021/10/18 13:41:30;;;;;;;13.33;11.00;;;;;;;;;;5048872;28;20205;-72
2021/10/18 13:43:55;;;;;;;12.13;10.27;;;;;;;;;;5048886;28;20492;-73
2021/10/18 13:46:20;;;;;;;13.98;10.27;;;;;;;;;;5052129;28;20435;-73
2021/10/18 13:48:45;;;;;;;12.90;10.50;;;;;;;;;;5034073;28;20187;-74
2021/10/18 13:51:11;;;;;;;11.38;10.13;;;;;;;;;;5035974;28;20193;-74
2021/10/18 13:53:36;;;;;;;10.52;9.32;;;;;;;;;;5054970;28;20180;-72
2021/10/18 13:56:01;;;;;;;10.23;9.15;;;;;;;;;;5033703;28;21269;-73
2021/10/18 13:58:26;;;;;;;12.68;10.38;;;;;;;;;;5048956;28;20176;-72
2021/10/18 14:00:52;;;;;;;11.73;9.38;;;;;;;;;;5044358;28;21977;-72
2021/10/18 14:03:17;;;;;;;11.70;9.18;;;;;;;;;;5061624;22;20700;-72
2021/10/18 14:05:42;;;;;;;17.67;9.80;;;;;;;;;;5048140;28;21788;-72
2021/10/18 14:08:07;;;;;;;13.88;9.48;;;;;;;;;;5048140;28;20618;-72
2021/10/18 14:10:32;;;;;;;13.30;9.97;;;;;;;;;;5048274;28;20426;-72
2021/10/18 14:12:58;;;;;;;12.68;9.90;;;;;;;;;;5047958;28;20954;-72
2021/10/18 14:15:23;;;;;;;11.63;9.60;;;;;;;;;;5045436;28;20189;-72
2021/10/18 14:17:48;;;;;;;10.88;8.73;;;;;;;;;;5045699;28;20421;-72
2021/10/18 14:20:13;;;;;;;11.88;9.82;;;;;;;;;;5050468;28;20272;-72
2021/10/18 14:22:39;;;;;;;13.52;10.27;;;;;;;;;;5033539;28;20200;-72
2021/10/18 14:25:05;;;;;;;12.27;8.85;;;;;;;;;;5048071;28;20212;-72
2021/10/18 14:27:32;;;;;;;14.15;9.25;;;;;;;;;;5031973;28;20181;-72
2021/10/18 14:29:57;;;;;;;16.45;10.05;;;;;;;;;;5048390;28;20726;-72
2021/10/18 14:32:22;;;;;;;11.33;8.90;;;;;;;;;;5050011;28;20213;-72
2021/10/18 14:34:48;;;;;;;13.73;9.88;;;;;;;;;;5050654;28;20425;-72
2021/10/18 14:37:13;;;;;;;10.48;9.00;;;;;;;;;;5049314;28;20204;-72
2021/10/18 14:39:38;;;;;;;12.40;9.77;;;;;;;;;;5048692;28;20192;-72
2021/10/18 14:42:03;;;;;;;13.05;9.27;;;;;;;;;;5049227;28;20206;-72
2021/10/18 14:44:28;;;;;;;13.10;9.73;;;;;;;;;;5046247;28;20205;-72
2021/10/18 14:46:53;;;;;;;14.57;9.87;;;;;;;;;;5044603;28;20426;-72
2021/10/18 14:49:19;;;;;;;13.23;9.90;;;;;;;;;;5047008;28;20445;-72
2021/10/18 14:51:44;;;;;;;10.60;9.23;;;;;;;;;;5046617;28;20442;-72
2021/10/18 14:54:10;;;;;;;15.38;9.90;;;;;;;;;;5029094;28;20449;-72
2021/10/18 14:56:36;;;;;;;17.40;9.32;;;;;;;;;;5048005;28;20188;-72
2021/10/18 14:59:01;;;;;;;13.48;9.23;;;;;;;;;;5051208;28;20563;-72
2021/10/18 15:01:29;;;;;;;14.30;9.38;;;;;;;;;;5049565;28;20208;-72
2021/10/18 15:03:56;;;;;;;14.88;10.13;;;;;;;;;;5045436;28;20238;-72
2021/10/18 15:06:21;;;;;;;15.25;9.52;;;;;;;;;;5049104;28;20184;-72
2021/10/18 15:08:46;;;;;;;12.97;9.07;;;;;;;;;;5047631;28;20693;-72
2021/10/18 15:11:12;;;;;;;10.93;8.80;;;;;;;;;;5046227;28;20423;-72
2021/10/18 15:13:39;;;;;;;10.43;8.48;;;;;;;;;;5047616;28;20204;-72
2021/10/18 15:16:04;;;;;;;10.48;9.25;;;;;;;;;;5045413;28;20207;-72
2021/10/18 15:18:29;;;;;;;12.82;9.23;;;;;;;;;;5052909;28;20618;-72
2021/10/18 15:20:55;;;;;;;11.48;9.48;;;;;;;;;;5036103;28;20241;-71
2021/10/18 15:23:20;;;;;;;11.88;9.07;;;;;;;;;;5053299;28;20204;-71
2021/10/18 15:25:46;;;;;;;13.55;9.65;;;;;;;;;;5050297;28;20623;-71